sensor_id;sensor_type;location;lat;lon;timestamp;P1;durP1;ratioP1;P2;durP2;ratioP2
5416;SDS011;2731;50.754;12.990;2023-02-11T00:02:12;41.40;;;19.52;;
5416;SDS011;2731;50.754;12.990;2023-02-11T00:04:38;32.30;;;17.25;;
5416;SDS011;2731;50.754;12.990;2023-02-11T00:07:05;34.88;;;16.23;;
5416;SDS011;2731;50.754;12.990;2023-02-11T00:09:33;47.25;;;18.35;;
5416;SDS011;2731;50.754;12.990;2023-02-11T00:11:59;33.80;;;18.00;;
5416;SDS011;2731;50.754;12.990;2023-02-11T00:14:25;32.65;;;17.30;;
5416;SDS011;2731;50.754;12.990;2023-02-11T00:16:51;32.88;;;17.23;;
5416;SDS011;2731;50.754;12.990;2023-02-11T00:19:18;33.95;;;17.95;;
5416;SDS011;2731;50.754;12.990;2023-02-11T00:21:45;36.55;;;17.80;;
5416;SDS011;2731;50.754;12.990;2023-02-11T00:24:13;34.92;;;17.40;;
5416;SDS011;2731;50.754;12.990;2023-02-11T00:26:39;38.70;;;18.33;;
5416;SDS011;2731;50.754;12.990;2023-02-11T00:29:05;39.97;;;18.63;;
5416;SDS011;2731;50.754;12.990;2023-02-11T00:31:31;36.97;;;18.58;;
5416;SDS011;2731;50.754;12.990;2023-02-11T00:33:57;34.25;;;17.20;;
5416;SDS011;2731;50.754;12.990;2023-02-11T00:36:24;32.85;;;18.55;;
5416;SDS011;2731;50.754;12.990;2023-02-11T00:38:51;38.40;;;20.35;;
5416;SDS011;2731;50.754;12.990;2023-02-11T00:41:18;39.85;;;19.02;;
5416;SDS011;2731;50.754;12.990;2023-02-11T00:43:44;38.85;;;19.98;;
5416;SDS011;2731;50.754;12.990;2023-02-11T00:46:11;33.47;;;17.90;;
5416;SDS011;2731;50.754;12.990;2023-02-11T00:48:38;39.13;;;19.48;;
5416;SDS011;2731;50.754;12.990;2023-02-11T00:51:04;38.85;;;19.23;;
5416;SDS011;2731;50.754;12.990;2023-02-11T00:53:31;35.80;;;18.65;;
5416;SDS011;2731;50.754;12.990;2023-02-11T00:55:57;33.42;;;17.35;;
5416;SDS011;2731;50.754;12.990;2023-02-11T00:58:25;34.50;;;17.92;;
5416;SDS011;2731;50.754;12.990;2023-02-11T01:00:53;36.40;;;17.70;;
5416;SDS011;2731;50.754;12.990;2023-02-11T01:03:20;34.53;;;17.83;;
5416;SDS011;2731;50.754;12.990;2023-02-11T01:05:46;43.47;;;19.42;;
5416;SDS011;2731;50.754;12.990;2023-02-11T01:08:12;36.15;;;19.60;;
5416;SDS011;2731;50.754;12.990;2023-02-11T01:10:38;40.53;;;18.63;;
5416;SDS011;2731;50.754;12.990;2023-02-11T01:13:04;32.13;;;17.58;;
5416;SDS011;2731;50.754;12.990;2023-02-11T01:15:33;36.47;;;19.83;;
5416;SDS011;2731;50.754;12.990;2023-02-11T01:18:01;37.25;;;19.13;;
5416;SDS011;2731;50.754;12.990;2023-02-11T01:20:28;36.80;;;19.90;;
5416;SDS011;2731;50.754;12.990;2023-02-11T01:22:54;36.22;;;18.67;;
5416;SDS011;2731;50.754;12.990;2023-02-11T01:25:20;34.65;;;17.98;;
5416;SDS011;2731;50.754;12.990;2023-02-11T01:27:46;31.52;;;17.52;;
5416;SDS011;2731;50.754;12.990;2023-02-11T01:30:12;35.13;;;17.20;;
5416;SDS011;2731;50.754;12.990;2023-02-11T01:32:49;31.10;;;15.80;;
5416;SDS011;2731;50.754;12.990;2023-02-11T01:35:15;34.20;;;18.67;;
5416;SDS011;2731;50.754;12.990;2023-02-11T01:37:41;32.92;;;16.95;;
5416;SDS011;2731;50.754;12.990;2023-02-11T01:40:10;31.15;;;16.70;;
5416;SDS011;2731;50.754;12.990;2023-02-11T01:42:37;33.13;;;17.63;;
5416;SDS011;2731;50.754;12.990;2023-02-11T01:48:11;30.25;;;16.00;;
5416;SDS011;2731;50.754;12.990;2023-02-11T01:50:37;31.30;;;16.55;;
5416;SDS011;2731;50.754;12.990;2023-02-11T01:53:04;32.47;;;16.40;;
5416;SDS011;2731;50.754;12.990;2023-02-11T01:55:50;37.60;;;19.13;;
5416;SDS011;2731;50.754;12.990;2023-02-11T01:58:35;31.98;;;17.45;;
5416;SDS011;2731;50.754;12.990;2023-02-11T02:01:03;34.15;;;16.30;;
5416;SDS011;2731;50.754;12.990;2023-02-11T02:03:29;31.83;;;16.13;;
5416;SDS011;2731;50.754;12.990;2023-02-11T02:05:58;36.22;;;18.52;;
5416;SDS011;2731;50.754;12.990;2023-02-11T02:11:12;29.90;;;15.60;;
5416;SDS011;2731;50.754;12.990;2023-02-11T02:13:40;32.95;;;16.70;;
5416;SDS011;2731;50.754;12.990;2023-02-11T02:16:07;31.88;;;16.50;;
5416;SDS011;2731;50.754;12.990;2023-02-11T02:26:28;28.90;;;15.98;;
5416;SDS011;2731;50.754;12.990;2023-02-11T02:34:15;28.92;;;15.38;;
5416;SDS011;2731;50.754;12.990;2023-02-11T02:36:57;34.83;;;17.73;;
5416;SDS011;2731;50.754;12.990;2023-02-11T02:39:28;28.45;;;15.18;;
5416;SDS011;2731;50.754;12.990;2023-02-11T02:41:57;35.17;;;17.38;;
5416;SDS011;2731;50.754;12.990;2023-02-11T02:44:23;31.98;;;16.48;;
5416;SDS011;2731;50.754;12.990;2023-02-11T02:46:49;30.80;;;15.77;;
5416;SDS011;2731;50.754;12.990;2023-02-11T02:49:15;23.85;;;14.85;;
5416;SDS011;2731;50.754;12.990;2023-02-11T02:52:00;31.20;;;16.90;;
5416;SDS011;2731;50.754;12.990;2023-02-11T03:07:26;31.77;;;16.83;;
5416;SDS011;2731;50.754;12.990;2023-02-11T03:09:58;28.48;;;15.30;;
5416;SDS011;2731;50.754;12.990;2023-02-11T03:12:27;28.52;;;15.35;;
5416;SDS011;2731;50.754;12.990;2023-02-11T03:14:55;31.35;;;16.45;;
5416;SDS011;2731;50.754;12.990;2023-02-11T03:17:21;28.05;;;14.98;;
5416;SDS011;2731;50.754;12.990;2023-02-11T03:19:49;30.90;;;15.32;;
5416;SDS011;2731;50.754;12.990;2023-02-11T03:22:32;27.17;;;15.15;;
5416;SDS011;2731;50.754;12.990;2023-02-11T03:25:02;32.13;;;16.67;;
5416;SDS011;2731;50.754;12.990;2023-02-11T03:30:32;29.40;;;15.60;;
5416;SDS011;2731;50.754;12.990;2023-02-11T03:33:15;30.55;;;16.80;;
5416;SDS011;2731;50.754;12.990;2023-02-11T03:35:45;29.77;;;15.70;;
5416;SDS011;2731;50.754;12.990;2023-02-11T03:38:15;27.92;;;15.13;;
5416;SDS011;2731;50.754;12.990;2023-02-11T03:40:42;32.67;;;17.17;;
5416;SDS011;2731;50.754;12.990;2023-02-11T03:43:26;29.67;;;16.58;;
5416;SDS011;2731;50.754;12.990;2023-02-11T03:45:53;28.02;;;16.20;;
5416;SDS011;2731;50.754;12.990;2023-02-11T03:48:25;25.55;;;14.77;;
5416;SDS011;2731;50.754;12.990;2023-02-11T03:50:52;29.77;;;16.10;;
5416;SDS011;2731;50.754;12.990;2023-02-11T03:53:19;34.15;;;16.92;;
5416;SDS011;2731;50.754;12.990;2023-02-11T03:55:46;26.42;;;14.25;;
5416;SDS011;2731;50.754;12.990;2023-02-11T03:58:13;28.65;;;14.48;;
5416;SDS011;2731;50.754;12.990;2023-02-11T04:00:40;28.83;;;15.10;;
5416;SDS011;2731;50.754;12.990;2023-02-11T04:03:07;28.27;;;13.65;;
5416;SDS011;2731;50.754;12.990;2023-02-11T04:05:34;29.15;;;15.32;;
5416;SDS011;2731;50.754;12.990;2023-02-11T04:08:00;29.33;;;15.82;;
5416;SDS011;2731;50.754;12.990;2023-02-11T04:10:26;28.23;;;15.30;;
5416;SDS011;2731;50.754;12.990;2023-02-11T04:12:52;26.17;;;15.00;;
5416;SDS011;2731;50.754;12.990;2023-02-11T04:15:18;29.92;;;15.82;;
5416;SDS011;2731;50.754;12.990;2023-02-11T04:17:44;24.67;;;13.30;;
5416;SDS011;2731;50.754;12.990;2023-02-11T04:20:10;29.75;;;15.07;;
5416;SDS011;2731;50.754;12.990;2023-02-11T04:22:36;28.33;;;15.20;;
5416;SDS011;2731;50.754;12.990;2023-02-11T04:25:03;28.48;;;16.02;;
5416;SDS011;2731;50.754;12.990;2023-02-11T04:27:29;26.15;;;14.48;;
5416;SDS011;2731;50.754;12.990;2023-02-11T04:29:56;28.02;;;14.57;;
5416;SDS011;2731;50.754;12.990;2023-02-11T04:32:24;27.63;;;13.77;;
5416;SDS011;2731;50.754;12.990;2023-02-11T04:34:50;25.27;;;14.00;;
5416;SDS011;2731;50.754;12.990;2023-02-11T04:37:16;24.63;;;14.65;;
5416;SDS011;2731;50.754;12.990;2023-02-11T04:39:42;28.92;;;14.65;;
5416;SDS011;2731;50.754;12.990;2023-02-11T04:42:08;28.27;;;15.25;;
5416;SDS011;2731;50.754;12.990;2023-02-11T04:44:34;27.40;;;15.00;;
5416;SDS011;2731;50.754;12.990;2023-02-11T04:47:00;27.10;;;14.82;;
5416;SDS011;2731;50.754;12.990;2023-02-11T04:49:26;28.67;;;14.35;;
5416;SDS011;2731;50.754;12.990;2023-02-11T04:51:52;26.80;;;14.35;;
5416;SDS011;2731;50.754;12.990;2023-02-11T04:54:18;25.52;;;12.45;;
5416;SDS011;2731;50.754;12.990;2023-02-11T04:56:46;27.08;;;14.05;;
5416;SDS011;2731;50.754;12.990;2023-02-11T04:59:13;27.88;;;15.13;;
5416;SDS011;2731;50.754;12.990;2023-02-11T05:01:40;23.55;;;14.02;;
5416;SDS011;2731;50.754;12.990;2023-02-11T05:04:06;27.70;;;15.32;;
5416;SDS011;2731;50.754;12.990;2023-02-11T05:06:32;30.38;;;14.57;;
5416;SDS011;2731;50.754;12.990;2023-02-11T05:08:58;27.73;;;14.52;;
5416;SDS011;2731;50.754;12.990;2023-02-11T05:11:25;26.33;;;14.18;;
5416;SDS011;2731;50.754;12.990;2023-02-11T05:13:51;26.52;;;13.77;;
5416;SDS011;2731;50.754;12.990;2023-02-11T05:16:18;27.48;;;14.02;;
5416;SDS011;2731;50.754;12.990;2023-02-11T05:18:44;28.95;;;13.95;;
5416;SDS011;2731;50.754;12.990;2023-02-11T05:21:11;29.20;;;14.75;;
5416;SDS011;2731;50.754;12.990;2023-02-11T05:23:38;26.00;;;13.35;;
5416;SDS011;2731;50.754;12.990;2023-02-11T05:26:04;27.38;;;14.05;;
5416;SDS011;2731;50.754;12.990;2023-02-11T05:28:31;34.35;;;15.57;;
5416;SDS011;2731;50.754;12.990;2023-02-11T05:30:57;29.35;;;15.20;;
5416;SDS011;2731;50.754;12.990;2023-02-11T05:33:23;28.00;;;14.43;;
5416;SDS011;2731;50.754;12.990;2023-02-11T05:35:50;31.73;;;14.07;;
5416;SDS011;2731;50.754;12.990;2023-02-11T05:38:16;29.77;;;15.65;;
5416;SDS011;2731;50.754;12.990;2023-02-11T05:40:42;28.65;;;13.95;;
5416;SDS011;2731;50.754;12.990;2023-02-11T05:43:08;29.77;;;14.70;;
5416;SDS011;2731;50.754;12.990;2023-02-11T05:45:34;32.03;;;15.48;;
5416;SDS011;2731;50.754;12.990;2023-02-11T05:48:00;28.38;;;14.27;;
5416;SDS011;2731;50.754;12.990;2023-02-11T05:50:27;29.48;;;15.20;;
5416;SDS011;2731;50.754;12.990;2023-02-11T05:52:53;25.80;;;14.15;;
5416;SDS011;2731;50.754;12.990;2023-02-11T05:55:19;28.48;;;14.20;;
5416;SDS011;2731;50.754;12.990;2023-02-11T05:57:45;30.00;;;16.33;;
5416;SDS011;2731;50.754;12.990;2023-02-11T06:00:11;39.20;;;16.67;;
5416;SDS011;2731;50.754;12.990;2023-02-11T06:02:38;29.00;;;16.13;;
5416;SDS011;2731;50.754;12.990;2023-02-11T06:05:05;29.50;;;15.60;;
5416;SDS011;2731;50.754;12.990;2023-02-11T06:07:33;32.30;;;16.08;;
5416;SDS011;2731;50.754;12.990;2023-02-11T06:09:59;36.22;;;17.50;;
5416;SDS011;2731;50.754;12.990;2023-02-11T06:12:27;30.52;;;15.95;;
5416;SDS011;2731;50.754;12.990;2023-02-11T06:14:53;33.25;;;15.95;;
5416;SDS011;2731;50.754;12.990;2023-02-11T06:17:19;30.95;;;16.77;;
5416;SDS011;2731;50.754;12.990;2023-02-11T06:19:46;36.00;;;17.30;;
5416;SDS011;2731;50.754;12.990;2023-02-11T06:22:12;32.17;;;16.77;;
5416;SDS011;2731;50.754;12.990;2023-02-11T06:24:39;34.30;;;16.90;;
5416;SDS011;2731;50.754;12.990;2023-02-11T06:27:06;30.40;;;16.33;;
5416;SDS011;2731;50.754;12.990;2023-02-11T06:29:34;32.95;;;16.42;;
5416;SDS011;2731;50.754;12.990;2023-02-11T06:32:00;32.55;;;16.13;;
5416;SDS011;2731;50.754;12.990;2023-02-11T06:34:26;38.30;;;17.30;;
5416;SDS011;2731;50.754;12.990;2023-02-11T06:36:52;37.60;;;17.38;;
5416;SDS011;2731;50.754;12.990;2023-02-11T06:39:18;29.08;;;15.57;;
5416;SDS011;2731;50.754;12.990;2023-02-11T06:41:44;29.65;;;16.40;;
5416;SDS011;2731;50.754;12.990;2023-02-11T06:44:10;34.55;;;16.88;;
5416;SDS011;2731;50.754;12.990;2023-02-11T06:46:36;28.73;;;15.98;;
5416;SDS011;2731;50.754;12.990;2023-02-11T06:49:02;31.10;;;16.33;;
5416;SDS011;2731;50.754;12.990;2023-02-11T06:51:28;31.10;;;16.42;;
5416;SDS011;2731;50.754;12.990;2023-02-11T06:53:56;34.58;;;17.88;;
5416;SDS011;2731;50.754;12.990;2023-02-11T06:56:22;31.05;;;17.42;;
5416;SDS011;2731;50.754;12.990;2023-02-11T06:58:51;36.42;;;19.35;;
5416;SDS011;2731;50.754;12.990;2023-02-11T07:01:18;34.00;;;16.88;;
5416;SDS011;2731;50.754;12.990;2023-02-11T07:03:44;30.02;;;15.68;;
5416;SDS011;2731;50.754;12.990;2023-02-11T07:06:12;28.73;;;15.73;;
5416;SDS011;2731;50.754;12.990;2023-02-11T07:08:38;30.38;;;15.95;;
5416;SDS011;2731;50.754;12.990;2023-02-11T07:11:13;28.08;;;14.95;;
5416;SDS011;2731;50.754;12.990;2023-02-11T07:13:40;30.30;;;15.90;;
5416;SDS011;2731;50.754;12.990;2023-02-11T07:16:09;29.70;;;17.48;;
5416;SDS011;2731;50.754;12.990;2023-02-11T07:18:38;29.27;;;16.15;;
5416;SDS011;2731;50.754;12.990;2023-02-11T07:21:04;35.72;;;17.83;;
5416;SDS011;2731;50.754;12.990;2023-02-11T07:23:31;30.77;;;17.30;;
5416;SDS011;2731;50.754;12.990;2023-02-11T07:25:57;31.95;;;16.48;;
5416;SDS011;2731;50.754;12.990;2023-02-11T07:28:24;33.80;;;19.05;;
5416;SDS011;2731;50.754;12.990;2023-02-11T07:30:52;35.38;;;19.27;;
5416;SDS011;2731;50.754;12.990;2023-02-11T07:33:18;41.33;;;18.35;;
5416;SDS011;2731;50.754;12.990;2023-02-11T07:35:44;35.08;;;19.33;;
5416;SDS011;2731;50.754;12.990;2023-02-11T07:38:10;33.17;;;18.25;;
5416;SDS011;2731;50.754;12.990;2023-02-11T07:40:36;41.10;;;20.27;;
5416;SDS011;2731;50.754;12.990;2023-02-11T07:43:02;35.67;;;16.58;;
5416;SDS011;2731;50.754;12.990;2023-02-11T07:45:28;38.95;;;20.13;;
5416;SDS011;2731;50.754;12.990;2023-02-11T07:47:55;33.75;;;17.65;;
5416;SDS011;2731;50.754;12.990;2023-02-11T07:50:22;40.13;;;20.33;;
5416;SDS011;2731;50.754;12.990;2023-02-11T07:52:48;37.70;;;19.52;;
5416;SDS011;2731;50.754;12.990;2023-02-11T07:55:14;37.33;;;20.10;;
5416;SDS011;2731;50.754;12.990;2023-02-11T07:57:40;38.03;;;20.65;;
5416;SDS011;2731;50.754;12.990;2023-02-11T08:00:06;39.75;;;21.02;;
5416;SDS011;2731;50.754;12.990;2023-02-11T08:02:33;41.03;;;21.38;;
5416;SDS011;2731;50.754;12.990;2023-02-11T08:04:59;40.72;;;19.05;;
5416;SDS011;2731;50.754;12.990;2023-02-11T08:07:26;36.45;;;18.48;;
5416;SDS011;2731;50.754;12.990;2023-02-11T08:09:54;37.08;;;19.13;;
5416;SDS011;2731;50.754;12.990;2023-02-11T08:12:20;37.70;;;19.80;;
5416;SDS011;2731;50.754;12.990;2023-02-11T08:14:47;40.40;;;21.10;;
5416;SDS011;2731;50.754;12.990;2023-02-11T08:17:16;42.10;;;20.60;;
5416;SDS011;2731;50.754;12.990;2023-02-11T08:19:42;41.83;;;21.13;;
5416;SDS011;2731;50.754;12.990;2023-02-11T08:22:08;41.92;;;20.33;;
5416;SDS011;2731;50.754;12.990;2023-02-11T08:24:34;42.13;;;18.77;;
5416;SDS011;2731;50.754;12.990;2023-02-11T08:27:00;35.75;;;20.25;;
5416;SDS011;2731;50.754;12.990;2023-02-11T08:29:26;44.63;;;20.95;;
5416;SDS011;2731;50.754;12.990;2023-02-11T08:31:52;38.60;;;20.33;;
5416;SDS011;2731;50.754;12.990;2023-02-11T08:34:20;38.35;;;19.33;;
5416;SDS011;2731;50.754;12.990;2023-02-11T08:36:48;39.42;;;20.02;;
5416;SDS011;2731;50.754;12.990;2023-02-11T08:39:16;41.53;;;22.85;;
5416;SDS011;2731;50.754;12.990;2023-02-11T08:41:43;44.10;;;22.27;;
5416;SDS011;2731;50.754;12.990;2023-02-11T08:44:09;50.40;;;24.58;;
5416;SDS011;2731;50.754;12.990;2023-02-11T08:46:35;50.25;;;26.15;;
5416;SDS011;2731;50.754;12.990;2023-02-11T08:49:02;50.03;;;25.55;;
5416;SDS011;2731;50.754;12.990;2023-02-11T08:51:29;38.45;;;20.80;;
5416;SDS011;2731;50.754;12.990;2023-02-11T08:53:56;37.38;;;19.83;;
5416;SDS011;2731;50.754;12.990;2023-02-11T08:56:22;37.28;;;21.67;;
5416;SDS011;2731;50.754;12.990;2023-02-11T08:58:49;42.95;;;21.83;;
5416;SDS011;2731;50.754;12.990;2023-02-11T09:01:16;42.83;;;24.90;;
5416;SDS011;2731;50.754;12.990;2023-02-11T09:03:43;41.05;;;21.13;;
5416;SDS011;2731;50.754;12.990;2023-02-11T09:06:09;49.38;;;23.90;;
5416;SDS011;2731;50.754;12.990;2023-02-11T09:08:36;45.45;;;22.45;;
5416;SDS011;2731;50.754;12.990;2023-02-11T09:11:02;39.95;;;22.30;;
5416;SDS011;2731;50.754;12.990;2023-02-11T09:13:29;47.80;;;23.30;;
5416;SDS011;2731;50.754;12.990;2023-02-11T09:15:55;42.10;;;21.65;;
5416;SDS011;2731;50.754;12.990;2023-02-11T09:18:21;40.60;;;22.05;;
5416;SDS011;2731;50.754;12.990;2023-02-11T09:20:47;50.55;;;23.27;;
5416;SDS011;2731;50.754;12.990;2023-02-11T09:23:13;43.55;;;21.92;;
5416;SDS011;2731;50.754;12.990;2023-02-11T09:25:40;44.50;;;21.90;;
5416;SDS011;2731;50.754;12.990;2023-02-11T09:28:06;44.65;;;22.40;;
5416;SDS011;2731;50.754;12.990;2023-02-11T09:30:34;44.33;;;24.17;;
5416;SDS011;2731;50.754;12.990;2023-02-11T09:33:02;46.22;;;23.13;;
5416;SDS011;2731;50.754;12.990;2023-02-11T09:35:31;42.40;;;22.83;;
5416;SDS011;2731;50.754;12.990;2023-02-11T09:37:59;42.00;;;21.90;;
5416;SDS011;2731;50.754;12.990;2023-02-11T09:40:25;45.38;;;24.30;;
5416;SDS011;2731;50.754;12.990;2023-02-11T09:43:07;46.63;;;24.70;;
5416;SDS011;2731;50.754;12.990;2023-02-11T09:45:35;46.30;;;24.45;;
5416;SDS011;2731;50.754;12.990;2023-02-11T09:48:14;47.53;;;23.63;;
5416;SDS011;2731;50.754;12.990;2023-02-11T09:50:42;46.25;;;21.70;;
5416;SDS011;2731;50.754;12.990;2023-02-11T09:56:10;39.08;;;21.52;;
5416;SDS011;2731;50.754;12.990;2023-02-11T09:58:41;47.70;;;25.83;;
5416;SDS011;2731;50.754;12.990;2023-02-11T10:01:13;43.60;;;21.50;;
5416;SDS011;2731;50.754;12.990;2023-02-11T10:06:29;44.60;;;21.23;;
5416;SDS011;2731;50.754;12.990;2023-02-11T10:19:21;39.08;;;20.65;;
5416;SDS011;2731;50.754;12.990;2023-02-11T10:24:54;43.83;;;23.52;;
5416;SDS011;2731;50.754;12.990;2023-02-11T10:27:27;41.93;;;21.43;;
5416;SDS011;2731;50.754;12.990;2023-02-11T10:29:56;45.28;;;23.20;;
5416;SDS011;2731;50.754;12.990;2023-02-11T10:34:53;40.63;;;20.85;;
5416;SDS011;2731;50.754;12.990;2023-02-11T10:37:20;45.70;;;22.92;;
5416;SDS011;2731;50.754;12.990;2023-02-11T10:39:46;43.20;;;22.95;;
5416;SDS011;2731;50.754;12.990;2023-02-11T10:42:12;70.88;;;32.78;;
5416;SDS011;2731;50.754;12.990;2023-02-11T10:47:39;48.88;;;24.73;;
5416;SDS011;2731;50.754;12.990;2023-02-11T10:50:20;50.08;;;26.52;;
5416;SDS011;2731;50.754;12.990;2023-02-11T10:52:46;42.67;;;23.20;;
5416;SDS011;2731;50.754;12.990;2023-02-11T10:55:20;45.53;;;23.85;;
5416;SDS011;2731;50.754;12.990;2023-02-11T10:57:54;43.88;;;23.02;;
5416;SDS011;2731;50.754;12.990;2023-02-11T11:00:34;50.50;;;23.83;;
5416;SDS011;2731;50.754;12.990;2023-02-11T11:03:02;47.53;;;22.60;;
5416;SDS011;2731;50.754;12.990;2023-02-11T11:05:45;47.58;;;22.30;;
5416;SDS011;2731;50.754;12.990;2023-02-11T11:08:12;41.85;;;21.77;;
5416;SDS011;2731;50.754;12.990;2023-02-11T11:10:43;41.45;;;23.25;;
5416;SDS011;2731;50.754;12.990;2023-02-11T11:13:26;45.80;;;22.73;;
5416;SDS011;2731;50.754;12.990;2023-02-11T11:16:05;43.45;;;22.40;;
5416;SDS011;2731;50.754;12.990;2023-02-11T11:18:33;49.15;;;23.40;;
5416;SDS011;2731;50.754;12.990;2023-02-11T11:21:02;45.42;;;22.83;;
5416;SDS011;2731;50.754;12.990;2023-02-11T11:23:30;46.35;;;25.10;;
5416;SDS011;2731;50.754;12.990;2023-02-11T11:28:29;52.45;;;24.17;;
5416;SDS011;2731;50.754;12.990;2023-02-11T11:30:56;39.50;;;21.38;;
5416;SDS011;2731;50.754;12.990;2023-02-11T11:33:28;43.90;;;20.58;;
5416;SDS011;2731;50.754;12.990;2023-02-11T11:36:02;39.85;;;21.20;;
5416;SDS011;2731;50.754;12.990;2023-02-11T11:38:29;41.72;;;22.52;;
5416;SDS011;2731;50.754;12.990;2023-02-11T11:43:59;40.00;;;20.63;;
5416;SDS011;2731;50.754;12.990;2023-02-11T11:46:31;41.85;;;21.98;;
5416;SDS011;2731;50.754;12.990;2023-02-11T11:48:59;38.67;;;20.50;;
5416;SDS011;2731;50.754;12.990;2023-02-11T11:51:28;43.10;;;21.40;;
5416;SDS011;2731;50.754;12.990;2023-02-11T11:53:59;39.20;;;20.35;;
5416;SDS011;2731;50.754;12.990;2023-02-11T11:56:29;43.47;;;22.23;;
5416;SDS011;2731;50.754;12.990;2023-02-11T11:58:59;41.22;;;22.80;;
5416;SDS011;2731;50.754;12.990;2023-02-11T12:01:31;41.47;;;20.30;;
5416;SDS011;2731;50.754;12.990;2023-02-11T12:11:24;45.13;;;23.80;;
5416;SDS011;2731;50.754;12.990;2023-02-11T12:14:02;40.70;;;21.92;;
5416;SDS011;2731;50.754;12.990;2023-02-11T12:16:40;50.45;;;22.70;;
5416;SDS011;2731;50.754;12.990;2023-02-11T12:26:59;47.63;;;20.88;;
5416;SDS011;2731;50.754;12.990;2023-02-11T12:32:03;51.38;;;25.75;;
5416;SDS011;2731;50.754;12.990;2023-02-11T12:34:40;38.35;;;20.23;;
5416;SDS011;2731;50.754;12.990;2023-02-11T12:37:21;39.90;;;21.98;;
5416;SDS011;2731;50.754;12.990;2023-02-11T12:39:50;44.85;;;20.92;;
5416;SDS011;2731;50.754;12.990;2023-02-11T12:56:12;47.83;;;25.10;;
5416;SDS011;2731;50.754;12.990;2023-02-11T12:58:42;45.70;;;23.17;;
5416;SDS011;2731;50.754;12.990;2023-02-11T13:01:33;36.10;;;20.40;;
5416;SDS011;2731;50.754;12.990;2023-02-11T13:04:20;43.03;;;22.35;;
5416;SDS011;2731;50.754;12.990;2023-02-11T13:09:42;38.88;;;19.42;;
5416;SDS011;2731;50.754;12.990;2023-02-11T13:12:11;38.45;;;21.23;;
5416;SDS011;2731;50.754;12.990;2023-02-11T13:14:58;37.17;;;18.40;;
5416;SDS011;2731;50.754;12.990;2023-02-11T13:17:29;40.10;;;21.05;;
5416;SDS011;2731;50.754;12.990;2023-02-11T13:19:59;39.40;;;20.70;;
5416;SDS011;2731;50.754;12.990;2023-02-11T13:22:27;33.78;;;19.55;;
5416;SDS011;2731;50.754;12.990;2023-02-11T13:24:58;33.47;;;18.20;;
5416;SDS011;2731;50.754;12.990;2023-02-11T13:35:29;32.53;;;17.67;;
5416;SDS011;2731;50.754;12.990;2023-02-11T13:37:57;32.15;;;17.80;;
5416;SDS011;2731;50.754;12.990;2023-02-11T13:40:25;31.92;;;17.67;;
5416;SDS011;2731;50.754;12.990;2023-02-11T13:42:55;30.65;;;15.95;;
5416;SDS011;2731;50.754;12.990;2023-02-11T13:45:29;37.55;;;18.27;;
5416;SDS011;2731;50.754;12.990;2023-02-11T13:48:00;33.95;;;19.45;;
5416;SDS011;2731;50.754;12.990;2023-02-11T13:50:27;33.63;;;18.48;;
5416;SDS011;2731;50.754;12.990;2023-02-11T13:53:00;33.97;;;17.77;;
5416;SDS011;2731;50.754;12.990;2023-02-11T13:55:26;34.22;;;17.73;;
5416;SDS011;2731;50.754;12.990;2023-02-11T14:03:16;35.80;;;17.73;;
5416;SDS011;2731;50.754;12.990;2023-02-11T14:14:16;38.42;;;19.10;;
5416;SDS011;2731;50.754;12.990;2023-02-11T14:19:31;37.08;;;20.23;;
5416;SDS011;2731;50.754;12.990;2023-02-11T14:22:04;36.15;;;16.98;;
5416;SDS011;2731;50.754;12.990;2023-02-11T14:27:00;29.65;;;16.48;;
5416;SDS011;2731;50.754;12.990;2023-02-11T14:29:41;32.33;;;17.75;;
5416;SDS011;2731;50.754;12.990;2023-02-11T14:37:44;31.88;;;17.55;;
5416;SDS011;2731;50.754;12.990;2023-02-11T14:40:30;34.45;;;17.52;;
5416;SDS011;2731;50.754;12.990;2023-02-11T14:42:57;37.88;;;18.60;;
5416;SDS011;2731;50.754;12.990;2023-02-11T14:45:29;30.35;;;17.73;;
5416;SDS011;2731;50.754;12.990;2023-02-11T14:50:33;31.67;;;17.92;;
5416;SDS011;2731;50.754;12.990;2023-02-11T14:53:04;34.40;;;17.20;;
5416;SDS011;2731;50.754;12.990;2023-02-11T14:55:34;31.65;;;16.98;;
5416;SDS011;2731;50.754;12.990;2023-02-11T15:00:30;36.67;;;18.00;;
5416;SDS011;2731;50.754;12.990;2023-02-11T15:02:57;34.75;;;16.60;;
5416;SDS011;2731;50.754;12.990;2023-02-11T15:05:24;31.90;;;18.00;;
5416;SDS011;2731;50.754;12.990;2023-02-11T15:07:52;34.00;;;17.63;;
5416;SDS011;2731;50.754;12.990;2023-02-11T15:10:21;34.08;;;17.20;;
5416;SDS011;2731;50.754;12.990;2023-02-11T15:12:49;29.27;;;16.85;;
5416;SDS011;2731;50.754;12.990;2023-02-11T15:15:16;29.50;;;17.10;;
5416;SDS011;2731;50.754;12.990;2023-02-11T15:17:44;29.67;;;15.93;;
5416;SDS011;2731;50.754;12.990;2023-02-11T15:20:17;30.13;;;17.00;;
5416;SDS011;2731;50.754;12.990;2023-02-11T15:25:12;29.83;;;16.65;;
5416;SDS011;2731;50.754;12.990;2023-02-11T15:27:47;31.20;;;17.80;;
5416;SDS011;2731;50.754;12.990;2023-02-11T15:35:15;27.67;;;16.02;;
5416;SDS011;2731;50.754;12.990;2023-02-11T15:37:41;35.28;;;18.42;;
5416;SDS011;2731;50.754;12.990;2023-02-11T15:40:09;33.70;;;18.48;;
5416;SDS011;2731;50.754;12.990;2023-02-11T15:42:35;31.83;;;17.58;;
5416;SDS011;2731;50.754;12.990;2023-02-11T15:47:37;34.63;;;17.73;;
5416;SDS011;2731;50.754;12.990;2023-02-11T15:50:06;28.08;;;16.98;;
5416;SDS011;2731;50.754;12.990;2023-02-11T15:52:32;33.25;;;19.05;;
5416;SDS011;2731;50.754;12.990;2023-02-11T15:54:58;30.60;;;16.92;;
5416;SDS011;2731;50.754;12.990;2023-02-11T15:57:26;35.70;;;17.50;;
5416;SDS011;2731;50.754;12.990;2023-02-11T15:59:52;40.28;;;18.58;;
5416;SDS011;2731;50.754;12.990;2023-02-11T16:02:30;37.45;;;18.67;;
5416;SDS011;2731;50.754;12.990;2023-02-11T16:05:02;36.38;;;18.80;;
5416;SDS011;2731;50.754;12.990;2023-02-11T16:10:15;33.40;;;18.30;;
5416;SDS011;2731;50.754;12.990;2023-02-11T16:12:48;36.70;;;18.88;;
5416;SDS011;2731;50.754;12.990;2023-02-11T16:15:29;39.58;;;17.92;;
5416;SDS011;2731;50.754;12.990;2023-02-11T16:17:55;36.67;;;19.10;;
5416;SDS011;2731;50.754;12.990;2023-02-11T16:20:21;39.17;;;19.08;;
5416;SDS011;2731;50.754;12.990;2023-02-11T16:22:48;34.20;;;18.70;;
5416;SDS011;2731;50.754;12.990;2023-02-11T16:25:20;38.67;;;18.90;;
5416;SDS011;2731;50.754;12.990;2023-02-11T16:27:47;35.17;;;18.52;;
5416;SDS011;2731;50.754;12.990;2023-02-11T16:30:36;30.52;;;17.02;;
5416;SDS011;2731;50.754;12.990;2023-02-11T16:33:02;37.45;;;18.45;;
5416;SDS011;2731;50.754;12.990;2023-02-11T16:35:30;33.30;;;19.30;;
5416;SDS011;2731;50.754;12.990;2023-02-11T16:38:02;35.13;;;18.80;;
5416;SDS011;2731;50.754;12.990;2023-02-11T16:40:28;37.92;;;18.65;;
5416;SDS011;2731;50.754;12.990;2023-02-11T16:42:54;37.83;;;20.30;;
5416;SDS011;2731;50.754;12.990;2023-02-11T16:45:20;37.13;;;18.90;;
5416;SDS011;2731;50.754;12.990;2023-02-11T16:47:46;34.85;;;18.17;;
5416;SDS011;2731;50.754;12.990;2023-02-11T16:50:21;34.97;;;19.20;;
5416;SDS011;2731;50.754;12.990;2023-02-11T16:52:50;38.00;;;20.25;;
5416;SDS011;2731;50.754;12.990;2023-02-11T16:55:18;38.10;;;18.63;;
5416;SDS011;2731;50.754;12.990;2023-02-11T16:57:44;42.13;;;22.08;;
5416;SDS011;2731;50.754;12.990;2023-02-11T17:00:10;40.05;;;21.17;;
5416;SDS011;2731;50.754;12.990;2023-02-11T17:02:40;37.83;;;20.17;;
5416;SDS011;2731;50.754;12.990;2023-02-11T17:05:06;41.03;;;19.48;;
5416;SDS011;2731;50.754;12.990;2023-02-11T17:07:33;37.47;;;20.13;;
5416;SDS011;2731;50.754;12.990;2023-02-11T17:09:59;36.35;;;20.27;;
5416;SDS011;2731;50.754;12.990;2023-02-11T17:12:26;42.22;;;21.38;;